KRIV/RIV METAR and TAF weather

Enter ICAO airport designator
Station Type Date Time Source
KRIV METAR 2020/01/20 21:58 UTC NOAA

KRIV 202158Z AUTO 23003KT 10SM FEW190 16/03 A3003 RMK AO2 SLP166 T01610025


Station Type Date Time Source
KRIV Decoded METAR 2020/01/20 21:58 UTC NOAA

Riverside / March Air Force Base, CA, United States (KRIV) 33-54N 117-15W 468M
Jan 20, 2020 - 04:58 PM EST / 2020.01.20 2158 UTC
Wind: from the SW (230 degrees) at 3 MPH (3 KT):0
Visibility: 10 mile(s):0
Sky conditions: mostly clear
Temperature: 61.0 F (16.1 C)
Dew Point: 36.5 F (2.5 C)
Relative Humidity: 39%
Pressure (altimeter): 30.03 in. Hg (1016 hPa)
ob: KRIV 202158Z AUTO 23003KT 10SM FEW190 16/03 A3003 RMK AO2 SLP166 T01610025
cycle: 22

Station Type Date Time Source
KRIV TAF 2020/01/20 20:12 UTC NOAA

TAF KRIV 202006Z 2020/2202 30009KT 9999 SCT075 BKN150 OVC200 510409 QNH3005INS
BECMG 2103/2104 VRB05KT 9999 VCSH SCT050 OVC080 620807 510409 QNH3008INS
BECMG 2108/2109 17006KT 9999 VCSH BKN015 OVC040 620807 510409 QNH3008INS
TEMPO 2109/2117 9000 -RA BR BKN010 OVC040
BECMG 2117/2118 29009KT 9999 VCSH SCT015 BKN025 QNH3010INS
BECMG 2123/2124 31009KT 9999 NSW BKN010 OVC020 QNH3010INS TX18/2022Z TN05/2114Z

Example: see airport list